sensor_id;sensor_type;location;lat;lon;timestamp;temperature;humidity
19734;DHT22;10018;51.230;7.860;2023-04-03T00:00:07;1.00;99.90
19734;DHT22;10018;51.230;7.860;2023-04-03T00:02:32;1.00;99.90
19734;DHT22;10018;51.230;7.860;2023-04-03T00:04:58;1.00;99.90
19734;DHT22;10018;51.230;7.860;2023-04-03T00:07:24;1.00;99.90
19734;DHT22;10018;51.230;7.860;2023-04-03T00:09:49;0.90;99.90
19734;DHT22;10018;51.230;7.860;2023-04-03T00:12:15;0.90;99.90
19734;DHT22;10018;51.230;7.860;2023-04-03T00:14:41;0.80;99.90
19734;DHT22;10018;51.230;7.860;2023-04-03T00:17:06;0.80;99.90
19734;DHT22;10018;51.230;7.860;2023-04-03T00:19:32;0.70;99.90
19734;DHT22;10018;51.230;7.860;2023-04-03T00:21:58;0.70;99.90
19734;DHT22;10018;51.230;7.860;2023-04-03T00:24:25;0.70;99.90
19734;DHT22;10018;51.230;7.860;2023-04-03T00:26:51;0.60;99.90
19734;DHT22;10018;51.230;7.860;2023-04-03T00:29:17;0.50;99.90
19734;DHT22;10018;51.230;7.860;2023-04-03T00:31:42;0.60;99.90
19734;DHT22;10018;51.230;7.860;2023-04-03T00:34:08;0.60;99.90
19734;DHT22;10018;51.230;7.860;2023-04-03T00:36:33;0.60;99.90
19734;DHT22;10018;51.230;7.860;2023-04-03T00:38:59;0.50;99.90
19734;DHT22;10018;51.230;7.860;2023-04-03T00:41:27;0.50;99.90
19734;DHT22;10018;51.230;7.860;2023-04-03T00:43:52;0.40;99.90
19734;DHT22;10018;51.230;7.860;2023-04-03T00:46:20;0.40;99.90
19734;DHT22;10018;51.230;7.860;2023-04-03T00:48:47;0.40;99.90
19734;DHT22;10018;51.230;7.860;2023-04-03T00:51:17;0.40;99.90
19734;DHT22;10018;51.230;7.860;2023-04-03T00:53:49;0.30;99.90
19734;DHT22;10018;51.230;7.860;2023-04-03T00:56:18;0.30;99.90
19734;DHT22;10018;51.230;7.860;2023-04-03T00:58:53;0.30;99.90
19734;DHT22;10018;51.230;7.860;2023-04-03T01:01:25;0.30;99.90
19734;DHT22;10018;51.230;7.860;2023-04-03T01:03:54;0.30;99.90
19734;DHT22;10018;51.230;7.860;2023-04-03T01:06:24;0.30;99.90
19734;DHT22;10018;51.230;7.860;2023-04-03T01:08:52;0.20;99.90
19734;DHT22;10018;51.230;7.860;2023-04-03T01:11:18;0.20;99.90
19734;DHT22;10018;51.230;7.860;2023-04-03T01:13:44;0.10;99.90
19734;DHT22;10018;51.230;7.860;2023-04-03T01:16:09;0.10;99.90
19734;DHT22;10018;51.230;7.860;2023-04-03T01:18:37;0.10;99.90
19734;DHT22;10018;51.230;7.860;2023-04-03T01:24:20;0.20;99.90
19734;DHT22;10018;51.230;7.860;2023-04-03T01:26:48;0.20;99.90
19734;DHT22;10018;51.230;7.860;2023-04-03T01:29:14;0.10;99.90
19734;DHT22;10018;51.230;7.860;2023-04-03T01:31:54;0.10;99.90
19734;DHT22;10018;51.230;7.860;2023-04-03T01:34:21;0.00;99.90
19734;DHT22;10018;51.230;7.860;2023-04-03T01:36:47;0.00;99.90
19734;DHT22;10018;51.230;7.860;2023-04-03T01:39:13;-0.10;99.90
19734;DHT22;10018;51.230;7.860;2023-04-03T01:41:39;-0.10;99.90
19734;DHT22;10018;51.230;7.860;2023-04-03T01:44:05;-0.10;99.90
19734;DHT22;10018;51.230;7.860;2023-04-03T01:46:31;-0.10;99.90
19734;DHT22;10018;51.230;7.860;2023-04-03T01:48:56;-0.10;99.90
19734;DHT22;10018;51.230;7.860;2023-04-03T01:51:26;-0.10;99.90
19734;DHT22;10018;51.230;7.860;2023-04-03T01:53:52;-0.10;99.90
19734;DHT22;10018;51.230;7.860;2023-04-03T01:56:17;-0.10;99.90
19734;DHT22;10018;51.230;7.860;2023-04-03T01:58:49;-0.20;99.90
19734;DHT22;10018;51.230;7.860;2023-04-03T02:01:14;-0.10;99.90
19734;DHT22;10018;51.230;7.860;2023-04-03T02:03:40;-0.20;99.90
19734;DHT22;10018;51.230;7.860;2023-04-03T02:06:09;-0.20;99.90
19734;DHT22;10018;51.230;7.860;2023-04-03T02:08:43;-0.20;99.90
19734;DHT22;10018;51.230;7.860;2023-04-03T02:11:09;-0.20;99.90
19734;DHT22;10018;51.230;7.860;2023-04-03T02:13:37;-0.20;99.90
19734;DHT22;10018;51.230;7.860;2023-04-03T02:16:09;-0.20;99.90
19734;DHT22;10018;51.230;7.860;2023-04-03T02:18:37;-0.20;99.90
19734;DHT22;10018;51.230;7.860;2023-04-03T02:21:03;-0.30;99.90
19734;DHT22;10018;51.230;7.860;2023-04-03T02:23:35;-0.30;99.90
19734;DHT22;10018;51.230;7.860;2023-04-03T02:26:13;-0.30;99.90
19734;DHT22;10018;51.230;7.860;2023-04-03T02:28:39;-0.30;99.90
19734;DHT22;10018;51.230;7.860;2023-04-03T02:31:05;-0.40;99.90
19734;DHT22;10018;51.230;7.860;2023-04-03T02:33:34;-0.40;99.90
19734;DHT22;10018;51.230;7.860;2023-04-03T02:36:06;-0.40;99.90
19734;DHT22;10018;51.230;7.860;2023-04-03T02:38:41;-0.40;99.90
19734;DHT22;10018;51.230;7.860;2023-04-03T02:41:10;-0.50;99.90
19734;DHT22;10018;51.230;7.860;2023-04-03T02:43:37;-0.40;99.90
19734;DHT22;10018;51.230;7.860;2023-04-03T02:46:11;-0.50;99.90
19734;DHT22;10018;51.230;7.860;2023-04-03T02:48:41;-0.40;99.90
19734;DHT22;10018;51.230;7.860;2023-04-03T02:51:06;-0.40;99.90
19734;DHT22;10018;51.230;7.860;2023-04-03T02:53:34;-0.50;99.90
19734;DHT22;10018;51.230;7.860;2023-04-03T02:56:00;-0.50;99.90
19734;DHT22;10018;51.230;7.860;2023-04-03T02:58:25;-0.50;99.90
19734;DHT22;10018;51.230;7.860;2023-04-03T03:00:53;-0.50;99.90
19734;DHT22;10018;51.230;7.860;2023-04-03T03:03:19;-0.60;99.90
19734;DHT22;10018;51.230;7.860;2023-04-03T03:05:45;-0.60;99.90
19734;DHT22;10018;51.230;7.860;2023-04-03T03:08:10;-0.60;99.90
19734;DHT22;10018;51.230;7.860;2023-04-03T03:10:38;-0.70;99.90
19734;DHT22;10018;51.230;7.860;2023-04-03T03:13:04;-0.60;99.90
19734;DHT22;10018;51.230;7.860;2023-04-03T03:15:32;-0.60;99.90
19734;DHT22;10018;51.230;7.860;2023-04-03T03:18:00;-0.60;99.90
19734;DHT22;10018;51.230;7.860;2023-04-03T03:20:25;-0.60;99.90
19734;DHT22;10018;51.230;7.860;2023-04-03T03:22:51;-0.70;99.90
19734;DHT22;10018;51.230;7.860;2023-04-03T03:25:17;-0.70;99.90
19734;DHT22;10018;51.230;7.860;2023-04-03T03:27:42;-0.70;99.90
19734;DHT22;10018;51.230;7.860;2023-04-03T03:30:08;-0.70;99.90
19734;DHT22;10018;51.230;7.860;2023-04-03T03:32:36;-0.80;99.90
19734;DHT22;10018;51.230;7.860;2023-04-03T03:35:02;-0.70;99.90
19734;DHT22;10018;51.230;7.860;2023-04-03T03:37:27;-0.80;99.90
19734;DHT22;10018;51.230;7.860;2023-04-03T03:39:53;-0.80;99.90
19734;DHT22;10018;51.230;7.860;2023-04-03T03:42:19;-0.80;99.90
19734;DHT22;10018;51.230;7.860;2023-04-03T03:44:44;-0.90;99.90
19734;DHT22;10018;51.230;7.860;2023-04-03T03:47:10;-0.90;99.90
19734;DHT22;10018;51.230;7.860;2023-04-03T03:49:36;-0.90;99.90
19734;DHT22;10018;51.230;7.860;2023-04-03T03:52:02;-0.90;99.90
19734;DHT22;10018;51.230;7.860;2023-04-03T03:54:27;-0.90;99.90
19734;DHT22;10018;51.230;7.860;2023-04-03T03:56:53;-0.90;99.90
19734;DHT22;10018;51.230;7.860;2023-04-03T03:59:18;-1.00;99.90
19734;DHT22;10018;51.230;7.860;2023-04-03T04:01:44;-0.90;99.90
19734;DHT22;10018;51.230;7.860;2023-04-03T04:04:10;-1.00;99.90
19734;DHT22;10018;51.230;7.860;2023-04-03T04:06:35;-1.00;99.90
19734;DHT22;10018;51.230;7.860;2023-04-03T04:09:01;-1.00;99.90
19734;DHT22;10018;51.230;7.860;2023-04-03T04:11:26;-1.00;99.90
19734;DHT22;10018;51.230;7.860;2023-04-03T04:13:54;-1.00;99.90
19734;DHT22;10018;51.230;7.860;2023-04-03T04:16:20;-1.10;99.90
19734;DHT22;10018;51.230;7.860;2023-04-03T04:18:45;-1.10;99.90
19734;DHT22;10018;51.230;7.860;2023-04-03T04:21:11;-1.00;99.90
19734;DHT22;10018;51.230;7.860;2023-04-03T04:23:36;-1.10;99.90
19734;DHT22;10018;51.230;7.860;2023-04-03T04:26:04;-1.10;99.90
19734;DHT22;10018;51.230;7.860;2023-04-03T04:28:30;-1.10;99.90
19734;DHT22;10018;51.230;7.860;2023-04-03T04:30:55;-1.10;99.90
19734;DHT22;10018;51.230;7.860;2023-04-03T04:33:23;-1.10;99.90
19734;DHT22;10018;51.230;7.860;2023-04-03T04:35:49;-1.10;99.90
19734;DHT22;10018;51.230;7.860;2023-04-03T04:38:15;-1.20;99.90
19734;DHT22;10018;51.230;7.860;2023-04-03T04:40:40;-1.20;99.90
19734;DHT22;10018;51.230;7.860;2023-04-03T04:43:06;-1.20;99.90
19734;DHT22;10018;51.230;7.860;2023-04-03T04:45:32;-1.30;99.90
19734;DHT22;10018;51.230;7.860;2023-04-03T04:47:58;-1.30;99.90
19734;DHT22;10018;51.230;7.860;2023-04-03T04:50:23;-1.30;99.90
19734;DHT22;10018;51.230;7.860;2023-04-03T04:52:49;-1.30;99.90
19734;DHT22;10018;51.230;7.860;2023-04-03T04:55:16;-1.30;99.90
19734;DHT22;10018;51.230;7.860;2023-04-03T04:57:42;-1.30;99.90
19734;DHT22;10018;51.230;7.860;2023-04-03T05:00:08;-1.30;99.90
19734;DHT22;10018;51.230;7.860;2023-04-03T05:02:36;-1.30;99.90
19734;DHT22;10018;51.230;7.860;2023-04-03T05:05:04;-1.30;99.90
19734;DHT22;10018;51.230;7.860;2023-04-03T05:07:29;-1.20;99.90
19734;DHT22;10018;51.230;7.860;2023-04-03T05:09:55;-1.20;99.90
19734;DHT22;10018;51.230;7.860;2023-04-03T05:12:20;-1.30;99.90
19734;DHT22;10018;51.230;7.860;2023-04-03T05:14:46;-1.30;99.90
19734;DHT22;10018;51.230;7.860;2023-04-03T05:17:11;-1.30;99.90
19734;DHT22;10018;51.230;7.860;2023-04-03T05:19:37;-1.20;99.90
19734;DHT22;10018;51.230;7.860;2023-04-03T05:22:03;-1.20;99.90
19734;DHT22;10018;51.230;7.860;2023-04-03T05:24:30;-1.10;99.90
19734;DHT22;10018;51.230;7.860;2023-04-03T05:26:56;-1.00;99.90
19734;DHT22;10018;51.230;7.860;2023-04-03T05:29:21;-1.10;99.90
19734;DHT22;10018;51.230;7.860;2023-04-03T05:31:49;-1.10;99.90
19734;DHT22;10018;51.230;7.860;2023-04-03T05:34:15;-1.10;99.90
19734;DHT22;10018;51.230;7.860;2023-04-03T05:36:41;-1.00;99.90
19734;DHT22;10018;51.230;7.860;2023-04-03T05:39:07;-1.00;99.90
19734;DHT22;10018;51.230;7.860;2023-04-03T05:41:33;-0.90;99.90
19734;DHT22;10018;51.230;7.860;2023-04-03T05:43:58;-0.90;99.90
19734;DHT22;10018;51.230;7.860;2023-04-03T05:46:24;-0.90;99.90
19734;DHT22;10018;51.230;7.860;2023-04-03T05:48:49;-0.70;99.90
19734;DHT22;10018;51.230;7.860;2023-04-03T05:51:22;-0.70;99.90
19734;DHT22;10018;51.230;7.860;2023-04-03T05:53:50;-0.70;99.90
19734;DHT22;10018;51.230;7.860;2023-04-03T05:56:17;-0.70;99.90
19734;DHT22;10018;51.230;7.860;2023-04-03T05:58:45;-0.70;99.90
19734;DHT22;10018;51.230;7.860;2023-04-03T06:01:13;-0.60;99.90
19734;DHT22;10018;51.230;7.860;2023-04-03T06:03:40;-0.40;99.90
19734;DHT22;10018;51.230;7.860;2023-04-03T06:06:05;-0.40;99.90
19734;DHT22;10018;51.230;7.860;2023-04-03T06:08:31;-0.20;99.90
19734;DHT22;10018;51.230;7.860;2023-04-03T06:10:58;-0.10;99.90
19734;DHT22;10018;51.230;7.860;2023-04-03T06:13:23;0.10;99.90
19734;DHT22;10018;51.230;7.860;2023-04-03T06:15:49;0.30;99.90
19734;DHT22;10018;51.230;7.860;2023-04-03T06:18:14;0.40;99.90
19734;DHT22;10018;51.230;7.860;2023-04-03T06:20:40;0.50;99.90
19734;DHT22;10018;51.230;7.860;2023-04-03T06:23:06;0.80;99.90
19734;DHT22;10018;51.230;7.860;2023-04-03T06:25:32;1.10;99.90
19734;DHT22;10018;51.230;7.860;2023-04-03T06:27:59;1.20;99.90
19734;DHT22;10018;51.230;7.860;2023-04-03T06:30:24;1.30;99.90
19734;DHT22;10018;51.230;7.860;2023-04-03T06:32:53;1.50;99.90
19734;DHT22;10018;51.230;7.860;2023-04-03T06:35:18;1.60;99.90
19734;DHT22;10018;51.230;7.860;2023-04-03T06:37:44;1.70;99.90
19734;DHT22;10018;51.230;7.860;2023-04-03T06:40:19;1.80;99.90
19734;DHT22;10018;51.230;7.860;2023-04-03T06:42:46;1.90;99.90
19734;DHT22;10018;51.230;7.860;2023-04-03T06:45:14;2.00;99.90
19734;DHT22;10018;51.230;7.860;2023-04-03T06:47:40;1.90;99.90
19734;DHT22;10018;51.230;7.860;2023-04-03T06:50:06;2.10;99.90
19734;DHT22;10018;51.230;7.860;2023-04-03T06:52:32;2.30;99.90
19734;DHT22;10018;51.230;7.860;2023-04-03T06:54:58;2.40;99.90
19734;DHT22;10018;51.230;7.860;2023-04-03T06:57:25;2.40;99.90
19734;DHT22;10018;51.230;7.860;2023-04-03T06:59:50;2.60;99.90
19734;DHT22;10018;51.230;7.860;2023-04-03T07:02:17;2.80;99.90
19734;DHT22;10018;51.230;7.860;2023-04-03T07:04:42;3.00;99.90
19734;DHT22;10018;51.230;7.860;2023-04-03T07:07:08;3.00;99.90
19734;DHT22;10018;51.230;7.860;2023-04-03T07:09:34;3.10;99.90
19734;DHT22;10018;51.230;7.860;2023-04-03T07:11:59;3.10;99.90
19734;DHT22;10018;51.230;7.860;2023-04-03T07:14:25;3.20;99.90
19734;DHT22;10018;51.230;7.860;2023-04-03T07:16:53;3.20;99.90
19734;DHT22;10018;51.230;7.860;2023-04-03T07:19:19;3.30;99.90
19734;DHT22;10018;51.230;7.860;2023-04-03T07:21:46;3.20;99.90
19734;DHT22;10018;51.230;7.860;2023-04-03T07:24:12;3.20;99.90
19734;DHT22;10018;51.230;7.860;2023-04-03T07:26:38;3.30;99.90
19734;DHT22;10018;51.230;7.860;2023-04-03T07:29:06;3.40;99.90
19734;DHT22;10018;51.230;7.860;2023-04-03T07:31:32;3.40;99.90
19734;DHT22;10018;51.230;7.860;2023-04-03T07:33:59;3.50;99.90
19734;DHT22;10018;51.230;7.860;2023-04-03T07:36:24;3.50;99.90
19734;DHT22;10018;51.230;7.860;2023-04-03T07:38:50;3.50;99.90
19734;DHT22;10018;51.230;7.860;2023-04-03T07:41:18;3.50;99.90
19734;DHT22;10018;51.230;7.860;2023-04-03T07:43:44;3.70;99.90
19734;DHT22;10018;51.230;7.860;2023-04-03T07:46:11;3.80;99.90
19734;DHT22;10018;51.230;7.860;2023-04-03T07:48:39;4.00;99.90
19734;DHT22;10018;51.230;7.860;2023-04-03T07:51:05;4.20;99.90
19734;DHT22;10018;51.230;7.860;2023-04-03T07:53:31;4.00;99.90
19734;DHT22;10018;51.230;7.860;2023-04-03T07:55:58;3.90;99.90
19734;DHT22;10018;51.230;7.860;2023-04-03T07:58:24;4.00;99.90
19734;DHT22;10018;51.230;7.860;2023-04-03T08:00:49;4.00;99.90
19734;DHT22;10018;51.230;7.860;2023-04-03T08:03:15;4.10;99.90
19734;DHT22;10018;51.230;7.860;2023-04-03T08:05:45;4.20;99.90
19734;DHT22;10018;51.230;7.860;2023-04-03T08:08:13;4.30;99.90
19734;DHT22;10018;51.230;7.860;2023-04-03T08:10:45;4.50;99.90
19734;DHT22;10018;51.230;7.860;2023-04-03T08:13:13;4.60;99.90
19734;DHT22;10018;51.230;7.860;2023-04-03T08:15:38;4.70;99.90
19734;DHT22;10018;51.230;7.860;2023-04-03T08:18:04;4.70;99.90
19734;DHT22;10018;51.230;7.860;2023-04-03T08:20:30;4.60;99.90
19734;DHT22;10018;51.230;7.860;2023-04-03T08:22:55;4.70;99.90
19734;DHT22;10018;51.230;7.860;2023-04-03T08:25:21;4.70;99.90
19734;DHT22;10018;51.230;7.860;2023-04-03T08:27:49;4.80;99.90
19734;DHT22;10018;51.230;7.860;2023-04-03T08:30:17;4.80;99.90
19734;DHT22;10018;51.230;7.860;2023-04-03T08:32:43;4.70;99.90
19734;DHT22;10018;51.230;7.860;2023-04-03T08:35:10;4.80;99.90
19734;DHT22;10018;51.230;7.860;2023-04-03T08:37:36;4.90;99.90
19734;DHT22;10018;51.230;7.860;2023-04-03T08:40:07;4.90;99.90
19734;DHT22;10018;51.230;7.860;2023-04-03T08:45:46;5.00;99.90
19734;DHT22;10018;51.230;7.860;2023-04-03T08:48:21;4.90;99.90
19734;DHT22;10018;51.230;7.860;2023-04-03T08:50:53;4.90;99.90
19734;DHT22;10018;51.230;7.860;2023-04-03T08:53:26;5.00;99.90
19734;DHT22;10018;51.230;7.860;2023-04-03T08:55:55;5.00;99.90
19734;DHT22;10018;51.230;7.860;2023-04-03T08:58:26;5.10;99.90
19734;DHT22;10018;51.230;7.860;2023-04-03T09:01:04;5.20;99.90
19734;DHT22;10018;51.230;7.860;2023-04-03T09:03:38;5.30;99.90
19734;DHT22;10018;51.230;7.860;2023-04-03T09:06:13;5.40;99.90
19734;DHT22;10018;51.230;7.860;2023-04-03T09:17:16;5.20;99.90
19734;DHT22;10018;51.230;7.860;2023-04-03T09:19:52;5.30;99.90
19734;DHT22;10018;51.230;7.860;2023-04-03T09:22:28;5.40;99.90
19734;DHT22;10018;51.230;7.860;2023-04-03T09:27:36;5.80;99.90
19734;DHT22;10018;51.230;7.860;2023-04-03T09:30:02;5.70;99.90
19734;DHT22;10018;51.230;7.860;2023-04-03T09:32:34;5.80;99.90
19734;DHT22;10018;51.230;7.860;2023-04-03T09:35:24;5.80;99.90
19734;DHT22;10018;51.230;7.860;2023-04-03T09:37:52;5.90;99.90
19734;DHT22;10018;51.230;7.860;2023-04-03T09:42:53;5.80;99.90
19734;DHT22;10018;51.230;7.860;2023-04-03T09:45:33;5.90;99.90
19734;DHT22;10018;51.230;7.860;2023-04-03T09:48:07;6.00;99.90
19734;DHT22;10018;51.230;7.860;2023-04-03T09:50:35;6.00;99.90
19734;DHT22;10018;51.230;7.860;2023-04-03T09:53:07;6.10;99.90
19734;DHT22;10018;51.230;7.860;2023-04-03T09:55:43;6.10;99.90
19734;DHT22;10018;51.230;7.860;2023-04-03T09:58:33;6.20;99.90
19734;DHT22;10018;51.230;7.860;2023-04-03T10:01:01;6.10;99.90
19734;DHT22;10018;51.230;7.860;2023-04-03T10:03:36;6.20;99.90
19734;DHT22;10018;51.230;7.860;2023-04-03T10:06:22;6.10;99.90
19734;DHT22;10018;51.230;7.860;2023-04-03T10:09:05;6.20;99.90
19734;DHT22;10018;51.230;7.860;2023-04-03T10:11:31;6.20;99.90
19734;DHT22;10018;51.230;7.860;2023-04-03T10:14:02;6.30;99.90
19734;DHT22;10018;51.230;7.860;2023-04-03T10:28:09;6.70;99.90
19734;DHT22;10018;51.230;7.860;2023-04-03T10:33:20;6.70;99.90
19734;DHT22;10018;51.230;7.860;2023-04-03T10:36:12;6.70;99.90
19734;DHT22;10018;51.230;7.860;2023-04-03T10:46:53;6.80;99.90
19734;DHT22;10018;51.230;7.860;2023-04-03T10:52:06;6.90;99.90
19734;DHT22;10018;51.230;7.860;2023-04-03T10:54:54;7.00;99.90
19734;DHT22;10018;51.230;7.860;2023-04-03T10:57:22;7.20;99.90
19734;DHT22;10018;51.230;7.860;2023-04-03T11:00:03;7.20;99.90
19734;DHT22;10018;51.230;7.860;2023-04-03T11:05:07;7.30;99.90
19734;DHT22;10018;51.230;7.860;2023-04-03T11:07:43;7.40;99.90
19734;DHT22;10018;51.230;7.860;2023-04-03T11:10:25;7.30;99.90
19734;DHT22;10018;51.230;7.860;2023-04-03T11:13:05;7.40;99.90
19734;DHT22;10018;51.230;7.860;2023-04-03T11:15:33;7.40;99.90
19734;DHT22;10018;51.230;7.860;2023-04-03T11:18:15;7.60;99.90
19734;DHT22;10018;51.230;7.860;2023-04-03T11:20:47;7.40;99.90
19734;DHT22;10018;51.230;7.860;2023-04-03T11:23:25;7.20;99.90
19734;DHT22;10018;51.230;7.860;2023-04-03T11:25:58;7.10;99.90
19734;DHT22;10018;51.230;7.860;2023-04-03T11:28:25;7.00;99.90
19734;DHT22;10018;51.230;7.860;2023-04-03T11:36:39;7.20;99.90
19734;DHT22;10018;51.230;7.860;2023-04-03T11:39:31;7.30;99.90
19734;DHT22;10018;51.230;7.860;2023-04-03T11:42:17;7.50;99.90
19734;DHT22;10018;51.230;7.860;2023-04-03T11:44:50;7.20;99.90
19734;DHT22;10018;51.230;7.860;2023-04-03T11:47:43;7.30;99.90
19734;DHT22;10018;51.230;7.860;2023-04-03T12:27:33;8.10;99.90
19734;DHT22;10018;51.230;7.860;2023-04-03T12:48:56;8.30;99.90
19734;DHT22;10018;51.230;7.860;2023-04-03T12:51:31;8.50;99.90
19734;DHT22;10018;51.230;7.860;2023-04-03T12:56:43;8.00;99.90
19734;DHT22;10018;51.230;7.860;2023-04-03T12:59:26;8.10;99.90
19734;DHT22;10018;51.230;7.860;2023-04-03T13:02:00;8.20;99.90
19734;DHT22;10018;51.230;7.860;2023-04-03T13:04:30;8.30;99.90
19734;DHT22;10018;51.230;7.860;2023-04-03T13:06:57;8.20;99.90
19734;DHT22;10018;51.230;7.860;2023-04-03T13:09:29;8.30;99.90
19734;DHT22;10018;51.230;7.860;2023-04-03T13:14:25;8.60;99.90
19734;DHT22;10018;51.230;7.860;2023-04-03T13:19:20;8.80;99.90
19734;DHT22;10018;51.230;7.860;2023-04-03T13:21:46;8.90;99.90
19734;DHT22;10018;51.230;7.860;2023-04-03T13:24:12;8.90;99.90
19734;DHT22;10018;51.230;7.860;2023-04-03T13:26:38;8.50;99.90
19734;DHT22;10018;51.230;7.860;2023-04-03T13:29:06;8.40;99.90
19734;DHT22;10018;51.230;7.860;2023-04-03T13:31:37;8.40;99.90
19734;DHT22;10018;51.230;7.860;2023-04-03T13:34:11;8.70;99.90
19734;DHT22;10018;51.230;7.860;2023-04-03T13:39:28;8.80;99.90
19734;DHT22;10018;51.230;7.860;2023-04-03T13:41:57;8.80;99.90
19734;DHT22;10018;51.230;7.860;2023-04-03T13:46:50;8.50;99.90
19734;DHT22;10018;51.230;7.860;2023-04-03T13:55:01;8.00;99.90
19734;DHT22;10018;51.230;7.860;2023-04-03T13:57:28;8.30;99.90
19734;DHT22;10018;51.230;7.860;2023-04-03T13:59:54;8.50;99.90
19734;DHT22;10018;51.230;7.860;2023-04-03T14:02:32;8.10;99.90
19734;DHT22;10018;51.230;7.860;2023-04-03T14:05:00;8.40;99.90
19734;DHT22;10018;51.230;7.860;2023-04-03T14:07:28;8.60;99.90
19734;DHT22;10018;51.230;7.860;2023-04-03T14:09:55;8.40;99.90
19734;DHT22;10018;51.230;7.860;2023-04-03T14:12:34;7.90;99.90
19734;DHT22;10018;51.230;7.860;2023-04-03T14:15:03;8.00;99.90
19734;DHT22;10018;51.230;7.860;2023-04-03T14:17:32;8.20;99.90
19734;DHT22;10018;51.230;7.860;2023-04-03T14:19:58;8.40;99.90
19734;DHT22;10018;51.230;7.860;2023-04-03T14:22:29;8.70;99.90
19734;DHT22;10018;51.230;7.860;2023-04-03T14:24:56;9.10;99.90
19734;DHT22;10018;51.230;7.860;2023-04-03T14:27:28;9.30;99.90
19734;DHT22;10018;51.230;7.860;2023-04-03T14:29:56;9.30;99.90
19734;DHT22;10018;51.230;7.860;2023-04-03T14:32:23;9.50;99.90
19734;DHT22;10018;51.230;7.860;2023-04-03T14:34:52;9.70;99.90
19734;DHT22;10018;51.230;7.860;2023-04-03T14:37:21;9.90;99.90
19734;DHT22;10018;51.230;7.860;2023-04-03T14:39:49;10.20;99.90
19734;DHT22;10018;51.230;7.860;2023-04-03T14:42:29;10.50;99.90
19734;DHT22;10018;51.230;7.860;2023-04-03T14:44:57;10.90;99.90
19734;DHT22;10018;51.230;7.860;2023-04-03T14:47:24;10.80;99.90
19734;DHT22;10018;51.230;7.860;2023-04-03T14:49:51;10.30;99.90
19734;DHT22;10018;51.230;7.860;2023-04-03T14:52:26;10.70;99.90
19734;DHT22;10018;51.230;7.860;2023-04-03T14:54:52;11.10;99.90
19734;DHT22;10018;51.230;7.860;2023-04-03T14:57:18;11.20;99.90
19734;DHT22;10018;51.230;7.860;2023-04-03T14:59:45;11.50;99.90
19734;DHT22;10018;51.230;7.860;2023-04-03T15:02:32;11.50;99.90
19734;DHT22;10018;51.230;7.860;2023-04-03T15:04:59;11.20;99.90
19734;DHT22;10018;51.230;7.860;2023-04-03T15:07:27;11.30;99.90
19734;DHT22;10018;51.230;7.860;2023-04-03T15:09:56;11.10;99.90
19734;DHT22;10018;51.230;7.860;2023-04-03T15:12:23;11.40;99.90
19734;DHT22;10018;51.230;7.860;2023-04-03T15:14:49;11.70;99.90
19734;DHT22;10018;51.230;7.860;2023-04-03T15:17:17;12.20;99.90
19734;DHT22;10018;51.230;7.860;2023-04-03T15:19:44;13.10;99.90
19734;DHT22;10018;51.230;7.860;2023-04-03T15:22:14;13.30;99.90
19734;DHT22;10018;51.230;7.860;2023-04-03T15:24:41;13.30;99.90
19734;DHT22;10018;51.230;7.860;2023-04-03T15:27:07;12.50;99.90
19734;DHT22;10018;51.230;7.860;2023-04-03T15:29:32;13.10;99.90
19734;DHT22;10018;51.230;7.860;2023-04-03T15:31:58;13.20;99.90
19734;DHT22;10018;51.230;7.860;2023-04-03T15:34:24;13.80;99.90
19734;DHT22;10018;51.230;7.860;2023-04-03T15:36:52;14.60;99.90
19734;DHT22;10018;51.230;7.860;2023-04-03T15:39:17;13.50;99.90
19734;DHT22;10018;51.230;7.860;2023-04-03T15:41:44;13.20;99.90
19734;DHT22;10018;51.230;7.860;2023-04-03T15:44:10;13.50;99.90
19734;DHT22;10018;51.230;7.860;2023-04-03T15:46:39;14.00;99.90
19734;DHT22;10018;51.230;7.860;2023-04-03T15:49:06;13.80;99.90
19734;DHT22;10018;51.230;7.860;2023-04-03T15:51:31;13.60;99.90
19734;DHT22;10018;51.230;7.860;2023-04-03T15:53:57;13.20;99.90
19734;DHT22;10018;51.230;7.860;2023-04-03T15:56:23;13.20;99.90
19734;DHT22;10018;51.230;7.860;2023-04-03T15:58:48;13.10;99.90
19734;DHT22;10018;51.230;7.860;2023-04-03T16:01:14;13.30;99.90
19734;DHT22;10018;51.230;7.860;2023-04-03T16:03:41;13.50;99.90
19734;DHT22;10018;51.230;7.860;2023-04-03T16:06:19;13.30;99.90
19734;DHT22;10018;51.230;7.860;2023-04-03T16:08:48;14.20;99.90
19734;DHT22;10018;51.230;7.860;2023-04-03T16:11:14;14.30;99.90
19734;DHT22;10018;51.230;7.860;2023-04-03T16:13:40;13.90;99.10
19734;DHT22;10018;51.230;7.860;2023-04-03T16:16:06;13.40;98.70
19734;DHT22;10018;51.230;7.860;2023-04-03T16:18:35;13.10;99.10
19734;DHT22;10018;51.230;7.860;2023-04-03T16:21:01;13.60;98.90
19734;DHT22;10018;51.230;7.860;2023-04-03T16:23:27;13.80;99.00
19734;DHT22;10018;51.230;7.860;2023-04-03T16:25:52;14.20;98.80
19734;DHT22;10018;51.230;7.860;2023-04-03T16:28:18;14.60;97.20
19734;DHT22;10018;51.230;7.860;2023-04-03T16:30:47;14.40;97.70
19734;DHT22;10018;51.230;7.860;2023-04-03T16:33:14;14.00;97.30
19734;DHT22;10018;51.230;7.860;2023-04-03T16:35:40;13.80;97.80
19734;DHT22;10018;51.230;7.860;2023-04-03T16:38:07;13.70;97.90
19734;DHT22;10018;51.230;7.860;2023-04-03T16:40:33;14.00;98.60
19734;DHT22;10018;51.230;7.860;2023-04-03T16:43:00;13.20;97.60
19734;DHT22;10018;51.230;7.860;2023-04-03T16:45:26;13.00;98.00
19734;DHT22;10018;51.230;7.860;2023-04-03T16:47:51;12.60;98.30
19734;DHT22;10018;51.230;7.860;2023-04-03T16:50:17;12.80;99.10
19734;DHT22;10018;51.230;7.860;2023-04-03T16:52:47;12.70;98.90
19734;DHT22;10018;51.230;7.860;2023-04-03T16:55:15;12.50;98.70
19734;DHT22;10018;51.230;7.860;2023-04-03T16:57:41;12.90;99.10
19734;DHT22;10018;51.230;7.860;2023-04-03T17:00:07;12.50;98.30
19734;DHT22;10018;51.230;7.860;2023-04-03T17:02:33;12.00;99.60
19734;DHT22;10018;51.230;7.860;2023-04-03T17:04:59;12.20;99.50
19734;DHT22;10018;51.230;7.860;2023-04-03T17:07:25;12.20;99.80
19734;DHT22;10018;51.230;7.860;2023-04-03T17:09:51;11.90;99.60
19734;DHT22;10018;51.230;7.860;2023-04-03T17:12:19;12.30;99.90
19734;DHT22;10018;51.230;7.860;2023-04-03T17:14:45;11.50;99.90
19734;DHT22;10018;51.230;7.860;2023-04-03T17:17:15;11.70;99.90
19734;DHT22;10018;51.230;7.860;2023-04-03T17:19:41;11.90;99.90
19734;DHT22;10018;51.230;7.860;2023-04-03T17:22:08;11.60;99.90
19734;DHT22;10018;51.230;7.860;2023-04-03T17:24:34;11.50;99.90
19734;DHT22;10018;51.230;7.860;2023-04-03T17:27:01;11.20;99.90
19734;DHT22;10018;51.230;7.860;2023-04-03T17:29:27;10.50;99.90
19734;DHT22;10018;51.230;7.860;2023-04-03T17:31:52;9.50;99.90
19734;DHT22;10018;51.230;7.860;2023-04-03T17:34:18;9.10;99.90
19734;DHT22;10018;51.230;7.860;2023-04-03T17:36:43;8.70;99.90
19734;DHT22;10018;51.230;7.860;2023-04-03T17:39:10;8.30;99.90
19734;DHT22;10018;51.230;7.860;2023-04-03T17:41:36;7.80;99.90
19734;DHT22;10018;51.230;7.860;2023-04-03T17:44:02;7.10;99.90
19734;DHT22;10018;51.230;7.860;2023-04-03T17:46:27;6.70;99.90
19734;DHT22;10018;51.230;7.860;2023-04-03T17:48:54;6.40;99.90
19734;DHT22;10018;51.230;7.860;2023-04-03T17:51:22;6.20;99.90
19734;DHT22;10018;51.230;7.860;2023-04-03T17:53:48;6.00;99.90